Time;durP1;ratioP1;P1;durP2;ratioP2;P2;SDS_P1;SDS_P2;PMS_P1;PMS_P2;Temp;Humidity;BMP_temperature;BMP_pressure;BME280_temperature;BME280_humidity;BME280_pressure;Samples;Min_cycle;Max_cycle;Signal;HPM_P1;HPM_P2
2022/10/29 00:01:38;;;;;;;9.77;5.70;;;18.90;99.90;;;;;;4973803;28;20524;-73
2022/10/29 00:04:04;;;;;;;13.20;6.00;;;18.90;99.90;;;;;;4975104;28;20516;-73
2022/10/29 00:06:32;;;;;;;10.50;5.90;;;18.90;99.90;;;;;;4976802;28;20984;-73
2022/10/29 00:08:58;;;;;;;15.70;7.43;;;18.90;99.90;;;;;;4977215;28;20448;-73
2022/10/29 00:11:24;;;;;;;8.37;5.23;;;18.90;99.90;;;;;;4976821;28;20455;-73
2022/10/29 00:13:58;;;;;;;11.50;6.23;;;18.80;99.90;;;;;;4987476;28;20459;-74
2022/10/29 00:16:33;;;;;;;7.47;5.53;;;18.80;99.90;;;;;;5012647;28;20481;-73
2022/10/29 00:18:59;;;;;;;10.93;5.50;;;18.80;99.90;;;;;;4989469;28;20438;-73
2022/10/29 00:21:28;;;;;;;12.43;5.70;;;18.80;99.90;;;;;;4974761;28;20430;-74
2022/10/29 00:23:55;;;;;;;8.33;5.27;;;18.80;99.90;;;;;;5001607;28;20458;-73
2022/10/29 00:26:24;;;;;;;9.30;5.27;;;18.80;99.90;;;;;;5007596;28;20938;-74
2022/10/29 00:28:55;;;;;;;8.57;6.23;;;18.80;99.90;;;;;;5012636;28;20447;-73
2022/10/29 00:31:23;;;;;;;9.83;5.47;;;18.80;99.90;;;;;;4982802;28;20431;-73
2022/10/29 00:33:51;;;;;;;10.67;5.70;;;18.80;99.90;;;;;;4985104;28;20471;-73
2022/10/29 00:36:21;;;;;;;9.33;5.80;;;18.80;99.90;;;;;;4981396;28;20429;-73
2022/10/29 00:38:50;;;;;;;10.73;5.90;;;18.80;99.90;;;;;;4976679;28;20553;-73
2022/10/29 00:41:19;;;;;;;12.23;6.40;;;18.80;99.90;;;;;;5002685;28;20524;-73
2022/10/29 00:44:12;;;;;;;9.40;6.10;;;18.80;99.90;;;;;;5003322;28;20470;-73
2022/10/29 00:46:45;;;;;;;10.53;6.50;;;18.80;99.90;;;;;;5010736;28;20442;-73
2022/10/29 00:49:17;;;;;;;9.80;5.80;;;18.70;99.90;;;;;;5004289;28;20529;-73
2022/10/29 00:51:44;;;;;;;8.30;5.97;;;18.70;99.90;;;;;;5001375;28;20424;-73
2022/10/29 00:54:12;;;;;;;12.10;6.27;;;18.70;99.90;;;;;;5003197;28;20557;-73
2022/10/29 00:57:02;;;;;;;6.43;5.20;;;18.70;99.90;;;;;;4978401;28;20433;-73
2022/10/29 00:59:31;;;;;;;11.90;5.67;;;18.70;99.90;;;;;;5006397;28;20521;-73
2022/10/29 01:01:57;;;;;;;10.63;6.13;;;18.70;99.90;;;;;;5012061;28;21015;-73
2022/10/29 01:04:26;;;;;;;8.10;5.80;;;18.70;99.90;;;;;;4999684;28;20512;-73
2022/10/29 01:06:53;;;;;;;8.90;5.73;;;18.70;99.90;;;;;;4990968;28;20452;-73
2022/10/29 01:09:19;;;;;;;10.87;5.77;;;18.70;99.90;;;;;;4998892;28;20469;-73
2022/10/29 01:11:56;;;;;;;8.93;5.90;;;18.70;99.90;;;;;;5011331;28;20447;-73
2022/10/29 01:14:57;;;;;;;9.27;6.23;;;18.70;99.90;;;;;;4993314;28;20450;-73
2022/10/29 01:17:31;;;;;;;10.27;5.63;;;18.70;99.90;;;;;;4997223;28;20461;-73
2022/10/29 01:20:24;;;;;;;9.87;5.83;;;18.70;99.90;;;;;;4982355;28;20430;-73
2022/10/29 01:23:15;;;;;;;11.80;6.50;;;18.70;99.90;;;;;;4987331;28;20868;-74
2022/10/29 01:26:02;;;;;;;9.90;5.50;;;18.70;99.90;;;;;;5002569;28;20448;-73
2022/10/29 01:28:57;;;;;;;9.87;6.60;;;18.60;99.90;;;;;;4993145;28;20442;-73
2022/10/29 01:31:54;;;;;;;16.23;6.47;;;18.60;99.90;;;;;;4991461;28;20535;-73
2022/10/29 01:34:39;;;;;;;13.43;5.90;;;18.60;99.90;;;;;;5012547;28;20538;-73
2022/10/29 01:37:23;;;;;;;14.23;5.63;;;18.60;99.90;;;;;;4976821;28;21046;-73
2022/10/29 01:40:14;;;;;;;9.50;5.63;;;18.60;99.90;;;;;;4977101;28;20440;-73
2022/10/29 01:42:49;;;;;;;14.30;5.63;;;18.60;99.90;;;;;;5001868;28;20426;-73
2022/10/29 01:45:50;;;;;;;9.47;5.50;;;18.60;99.90;;;;;;5006771;28;20442;-73
2022/10/29 01:48:25;;;;;;;9.87;6.40;;;18.60;99.90;;;;;;4977275;28;20520;-73
2022/10/29 01:51:03;;;;;;;10.70;5.90;;;18.60;99.90;;;;;;5006707;28;20420;-73
2022/10/29 01:53:35;;;;;;;8.50;5.93;;;18.60;99.90;;;;;;5004855;28;20476;-73
2022/10/29 01:56:03;;;;;;;11.70;6.20;;;18.50;99.90;;;;;;4992652;28;20844;-73
2022/10/29 01:58:30;;;;;;;14.23;6.50;;;18.60;99.90;;;;;;4995600;28;20451;-73
2022/10/29 02:01:10;;;;;;;10.60;5.87;;;18.60;99.90;;;;;;4999701;28;20446;-73
2022/10/29 02:04:11;;;;;;;10.87;5.20;;;18.60;99.90;;;;;;5052884;22;20501;-93
2022/10/29 02:06:46;;;;;;;13.30;6.40;;;18.60;99.90;;;;;;5021374;28;20472;-93
2022/10/29 02:09:20;;;;;;;8.30;6.20;;;18.60;99.90;;;;;;5019867;28;20479;-93
2022/10/29 02:12:00;;;;;;;8.73;6.10;;;18.50;99.90;;;;;;5039613;28;20753;-93
2022/10/29 02:14:37;;;;;;;8.90;6.20;;;18.50;99.90;;;;;;5022337;28;20931;-91
2022/10/29 02:17:04;;;;;;;9.73;5.53;;;18.50;99.90;;;;;;5057103;28;20464;-92
2022/10/29 02:19:32;;;;;;;11.43;5.57;;;18.50;99.90;;;;;;5041967;28;20443;-91
2022/10/29 02:21:58;;;;;;;11.80;5.90;;;18.50;99.90;;;;;;5053784;28;20423;-95
2022/10/29 02:24:24;;;;;;;15.00;6.00;;;18.50;99.90;;;;;;5021903;28;20422;-92
2022/10/29 02:26:51;;;;;;;10.90;5.33;;;18.50;99.90;;;;;;5053002;28;21109;-91
2022/10/29 02:29:17;;;;;;;7.60;5.33;;;18.50;99.90;;;;;;5055379;28;20461;-93
2022/10/29 02:31:43;;;;;;;11.67;6.53;;;18.50;99.90;;;;;;5032899;28;20762;-93
2022/10/29 02:34:09;;;;;;;9.90;5.57;;;18.50;99.90;;;;;;5041383;28;20550;-91
2022/10/29 02:36:35;;;;;;;7.77;6.03;;;18.50;99.90;;;;;;5041304;28;20434;-91
2022/10/29 02:39:01;;;;;;;11.87;6.80;;;18.50;99.90;;;;;;5041829;28;20634;-92
2022/10/29 02:41:27;;;;;;;13.10;5.70;;;18.50;99.90;;;;;;5054001;28;20454;-93
2022/10/29 02:43:53;;;;;;;11.97;5.93;;;18.50;99.90;;;;;;5022003;28;20502;-93
2022/10/29 02:46:21;;;;;;;8.50;5.53;;;18.40;99.90;;;;;;5039778;28;21068;-93
2022/10/29 02:48:47;;;;;;;8.93;6.13;;;18.40;99.90;;;;;;5038051;28;20544;-94
2022/10/29 02:51:14;;;;;;;10.50;6.20;;;18.40;99.90;;;;;;5034859;28;20430;-90
2022/10/29 02:53:40;;;;;;;7.50;5.27;;;18.40;99.90;;;;;;5041239;28;20465;-93
2022/10/29 02:56:07;;;;;;;9.93;6.00;;;18.40;99.90;;;;;;5045037;28;20429;-93
2022/10/29 02:58:34;;;;;;;8.97;5.10;;;18.40;99.90;;;;;;5005711;28;20503;-93
2022/10/29 03:01:00;;;;;;;9.60;5.83;;;18.40;99.90;;;;;;5005523;28;20453;-93
2022/10/29 03:03:27;;;;;;;8.33;5.57;;;18.40;99.90;;;;;;5057095;28;20460;-93
2022/10/29 03:05:53;;;;;;;9.87;5.60;;;18.40;99.90;;;;;;5024812;28;20468;-94
2022/10/29 03:08:19;;;;;;;9.97;6.30;;;18.40;99.90;;;;;;5057969;28;20420;-93
2022/10/29 03:10:45;;;;;;;10.10;5.37;;;18.40;99.90;;;;;;5039383;28;20921;-94
2022/10/29 03:13:11;;;;;;;14.33;5.80;;;18.40;99.90;;;;;;5023620;28;20471;-93
2022/10/29 03:15:37;;;;;;;13.37;5.87;;;18.40;99.90;;;;;;5038552;28;20887;-93
2022/10/29 03:18:04;;;;;;;12.83;6.20;;;18.40;99.90;;;;;;5037740;28;20563;-88
2022/10/29 03:20:30;;;;;;;14.93;6.07;;;18.40;99.90;;;;;;5004065;28;20429;-94
2022/10/29 03:22:58;;;;;;;9.93;5.97;;;18.30;99.90;;;;;;5047215;28;20434;-91
2022/10/29 03:25:24;;;;;;;9.30;5.67;;;18.30;99.90;;;;;;5037520;28;20443;-91
2022/10/29 03:27:51;;;;;;;7.53;5.90;;;18.30;99.90;;;;;;5037723;28;20565;-92
2022/10/29 03:30:17;;;;;;;13.83;6.23;;;18.30;99.90;;;;;;5038629;28;20540;-93
2022/10/29 03:32:45;;;;;;;9.53;4.90;;;18.30;99.90;;;;;;5004426;28;20470;-94
2022/10/29 03:35:13;;;;;;;9.43;5.40;;;18.30;99.90;;;;;;5038541;28;20466;-94
2022/10/29 03:37:39;;;;;;;9.50;5.10;;;18.30;99.90;;;;;;5037484;28;20453;-94
2022/10/29 03:40:06;;;;;;;10.17;5.90;;;18.30;99.90;;;;;;5021134;28;20426;-93
2022/10/29 03:42:33;;;;;;;9.50;5.80;;;18.30;99.90;;;;;;5028936;28;20442;-92
2022/10/29 03:45:04;;;;;;;9.53;5.90;;;18.30;99.90;;;;;;5037216;28;20784;-90
2022/10/29 03:47:32;;;;;;;9.60;5.33;;;18.20;99.90;;;;;;5047236;28;20459;-91
2022/10/29 03:49:58;;;;;;;15.67;5.83;;;18.30;99.90;;;;;;5023852;28;20436;-92
2022/10/29 03:52:27;;;;;;;9.93;5.37;;;18.30;99.90;;;;;;5056948;28;20560;-93
2022/10/29 03:54:54;;;;;;;11.17;5.60;;;18.30;99.90;;;;;;5056305;28;20465;-93
2022/10/29 03:57:20;;;;;;;9.97;6.00;;;18.30;99.90;;;;;;5048035;28;20429;-94
2022/10/29 03:59:47;;;;;;;7.00;4.90;;;18.20;99.90;;;;;;5024142;28;20449;-93
2022/10/29 04:02:13;;;;;;;9.53;5.70;;;18.20;99.90;;;;;;5020725;28;20504;-94
2022/10/29 04:04:59;;;;;;;12.03;6.23;;;18.20;99.90;;;;;;5038186;28;20959;-93
2022/10/29 04:07:25;;;;;;;10.47;5.43;;;18.20;99.90;;;;;;5056792;28;20430;-94
2022/10/29 04:09:51;;;;;;;13.67;6.73;;;18.20;99.90;;;;;;5049234;28;20467;-93
2022/10/29 04:12:17;;;;;;;10.20;5.60;;;18.20;99.90;;;;;;5045475;28;20452;-92
2022/10/29 04:14:44;;;;;;;10.97;6.57;;;18.20;99.90;;;;;;5034972;28;20443;-95
2022/10/29 04:17:11;;;;;;;9.43;5.80;;;18.20;99.90;;;;;;5020485;28;20506;-93
2022/10/29 04:19:37;;;;;;;7.43;5.83;;;18.20;99.90;;;;;;5024539;28;20447;-94
2022/10/29 04:22:02;;;;;;;8.20;5.53;;;18.20;99.90;;;;;;5042936;28;20455;-95
2022/10/29 04:24:28;;;;;;;8.77;5.53;;;18.20;99.90;;;;;;5057334;28;20481;-95
2022/10/29 04:26:54;;;;;;;11.93;6.00;;;18.10;99.90;;;;;;5056845;28;20480;-96
2022/10/29 04:29:21;;;;;;;12.70;5.83;;;18.20;99.90;;;;;;5050337;28;20202;-96
2022/10/29 04:31:47;;;;;;;7.23;5.10;;;18.20;99.90;;;;;;5037046;28;20491;-94
2022/10/29 04:34:12;;;;;;;8.67;5.50;;;18.20;99.90;;;;;;5003881;28;20557;-95
2022/10/29 04:36:38;;;;;;;9.37;5.60;;;18.10;99.90;;;;;;5038568;28;20413;-95
2022/10/29 04:39:04;;;;;;;12.27;6.00;;;18.10;99.90;;;;;;5052217;28;20794;-95
2022/10/29 04:41:30;;;;;;;9.93;5.43;;;18.10;99.90;;;;;;5038100;28;20523;-93
2022/10/29 04:43:56;;;;;;;9.60;5.77;;;18.10;99.90;;;;;;5056774;28;20762;-95
2022/10/29 04:46:32;;;;;;;7.87;5.80;;;18.10;99.90;;;;;;5055444;28;20501;-93
2022/10/29 04:48:58;;;;;;;8.43;5.60;;;18.10;99.90;;;;;;5055549;28;20439;-95
2022/10/29 04:51:31;;;;;;;7.63;5.20;;;18.10;99.90;;;;;;5056043;28;20552;-95
2022/10/29 04:53:57;;;;;;;9.60;5.90;;;18.10;99.90;;;;;;5055760;28;20473;-94
2022/10/29 04:56:23;;;;;;;10.80;5.90;;;18.10;99.90;;;;;;5055418;28;20451;-95
2022/10/29 04:58:58;;;;;;;7.30;5.43;;;18.10;99.90;;;;;;5047723;28;20457;-94
2022/10/29 05:01:24;;;;;;;10.20;5.50;;;18.10;99.90;;;;;;5035751;28;20473;-95
2022/10/29 05:03:50;;;;;;;8.33;5.13;;;18.10;99.90;;;;;;5045917;28;20197;-96
2022/10/29 05:06:16;;;;;;;8.40;5.57;;;18.10;99.90;;;;;;5056297;28;20546;-96
2022/10/29 05:08:42;;;;;;;10.80;5.80;;;18.10;99.90;;;;;;5048620;28;20466;-94
2022/10/29 05:11:08;;;;;;;10.67;5.50;;;18.10;99.90;;;;;;5021162;28;20441;-94
2022/10/29 05:13:34;;;;;;;7.43;6.47;;;18.10;99.90;;;;;;5033723;28;20468;-95
2022/10/29 05:16:00;;;;;;;6.90;5.07;;;18.00;99.90;;;;;;5044139;28;20800;-94
2022/10/29 05:18:26;;;;;;;11.37;5.87;;;18.00;99.90;;;;;;5055415;28;20424;-95
2022/10/29 05:20:54;;;;;;;8.47;5.37;;;18.10;99.90;;;;;;5054755;28;20481;-93
2022/10/29 05:23:20;;;;;;;9.53;5.43;;;18.00;99.90;;;;;;5055233;28;20419;-92
2022/10/29 05:25:48;;;;;;;9.60;5.70;;;18.00;99.90;;;;;;5038743;28;20479;-94
2022/10/29 05:28:17;;;;;;;7.80;5.10;;;18.00;99.90;;;;;;5054398;28;20429;-92
2022/10/29 05:30:44;;;;;;;8.47;5.97;;;18.00;99.90;;;;;;5035583;28;20462;-95
2022/10/29 05:33:16;;;;;;;8.17;5.20;;;18.00;99.90;;;;;;5019275;28;20461;-93
2022/10/29 05:35:43;;;;;;;12.50;5.30;;;18.00;99.90;;;;;;5035284;28;20754;-94
2022/10/29 05:38:10;;;;;;;7.30;4.93;;;18.00;99.90;;;;;;5036299;28;20821;-92
2022/10/29 05:40:36;;;;;;;10.70;5.23;;;18.00;99.90;;;;;;5054999;28;20462;-94
2022/10/29 05:43:02;;;;;;;8.50;6.10;;;18.00;99.90;;;;;;5035415;28;20477;-94
2022/10/29 05:45:28;;;;;;;9.13;6.13;;;18.00;99.90;;;;;;5037443;28;20526;-95
2022/10/29 05:47:59;;;;;;;7.20;5.47;;;18.00;99.90;;;;;;5053308;28;20454;-94
2022/10/29 05:50:26;;;;;;;7.43;5.17;;;18.00;99.90;;;;;;5035049;28;20465;-95
2022/10/29 05:52:55;;;;;;;8.57;5.53;;;18.00;99.90;;;;;;5035991;28;20463;-95
2022/10/29 05:55:22;;;;;;;10.47;5.50;;;18.00;99.90;;;;;;5054948;28;20501;-94
2022/10/29 05:57:48;;;;;;;6.93;4.80;;;18.00;99.90;;;;;;5055294;28;20501;-94
2022/10/29 06:00:14;;;;;;;7.47;5.33;;;17.90;99.90;;;;;;5037950;28;20763;-90
2022/10/29 06:02:43;;;;;;;8.17;5.73;;;17.90;99.90;;;;;;5055495;28;20431;-94
2022/10/29 06:05:09;;;;;;;6.83;4.87;;;17.90;99.90;;;;;;5022161;28;20459;-95
2022/10/29 06:07:35;;;;;;;16.17;5.67;;;17.90;99.90;;;;;;5022071;28;20444;-94
2022/10/29 06:10:01;;;;;;;9.07;5.13;;;17.90;99.90;;;;;;5038391;28;21093;-94
2022/10/29 06:12:31;;;;;;;9.13;5.53;;;17.90;99.90;;;;;;5054625;28;20424;-92
2022/10/29 06:14:57;;;;;;;6.27;5.10;;;17.90;99.90;;;;;;5054495;28;20926;-93
2022/10/29 06:17:23;;;;;;;10.10;5.67;;;17.90;99.90;;;;;;5055404;28;20502;-95
2022/10/29 06:19:49;;;;;;;8.53;5.57;;;17.90;99.90;;;;;;5054473;28;20522;-95
2022/10/29 06:22:15;;;;;;;8.13;5.80;;;17.90;99.90;;;;;;5055410;28;20447;-95
2022/10/29 06:24:41;;;;;;;10.53;5.50;;;17.80;99.90;;;;;;5039232;28;20448;-96
2022/10/29 06:27:07;;;;;;;8.57;6.20;;;17.90;99.90;;;;;;5035303;28;20425;-94
2022/10/29 06:29:32;;;;;;;6.83;4.60;;;17.90;99.90;;;;;;5040853;28;20912;-91
2022/10/29 06:31:58;;;;;;;7.97;5.20;;;17.90;99.90;;;;;;5054626;28;20443;-94
2022/10/29 06:34:24;;;;;;;8.20;5.93;;;17.90;99.90;;;;;;5043059;28;20484;-93
2022/10/29 06:36:50;;;;;;;8.40;5.43;;;17.80;99.90;;;;;;5037288;28;20462;-95
2022/10/29 06:39:16;;;;;;;10.80;5.53;;;17.90;99.90;;;;;;5047499;28;20425;-94
2022/10/29 06:41:42;;;;;;;7.00;5.20;;;17.80;99.90;;;;;;5053257;28;20428;-94
2022/10/29 06:44:15;;;;;;;8.27;5.60;;;17.90;99.90;;;;;;5032464;28;20501;-92
2022/10/29 06:46:41;;;;;;;8.23;4.73;;;17.80;99.90;;;;;;5030450;28;20590;-90
2022/10/29 06:49:07;;;;;;;8.67;4.63;;;17.80;99.90;;;;;;5053326;28;20577;-93
2022/10/29 06:51:33;;;;;;;9.97;6.10;;;17.80;99.90;;;;;;5053671;28;20432;-95
2022/10/29 06:54:07;;;;;;;8.60;5.57;;;17.80;99.90;;;;;;5050329;28;20480;-95
2022/10/29 06:56:33;;;;;;;9.83;5.57;;;17.80;99.90;;;;;;5056316;28;20196;-94
2022/10/29 06:59:19;;;;;;;10.53;5.70;;;17.80;99.90;;;;;;5030843;28;20828;-94
2022/10/29 07:01:45;;;;;;;8.10;5.80;;;17.80;99.90;;;;;;5058123;28;20431;-94
2022/10/29 07:04:11;;;;;;;6.53;4.90;;;17.80;99.90;;;;;;5040752;28;20471;-93
2022/10/29 07:06:37;;;;;;;7.30;5.50;;;17.80;99.90;;;;;;5057691;28;20409;-94
2022/10/29 07:09:03;;;;;;;10.07;5.93;;;17.80;99.90;;;;;;5044869;28;20430;-95
2022/10/29 07:11:32;;;;;;;6.07;5.00;;;17.80;99.90;;;;;;5054055;28;20443;-92
2022/10/29 07:13:58;;;;;;;6.70;5.13;;;17.80;99.90;;;;;;5051594;28;20467;-96
2022/10/29 07:16:40;;;;;;;9.47;5.73;;;17.80;99.90;;;;;;5045147;28;20448;-94
2022/10/29 07:19:06;;;;;;;7.57;5.00;;;17.80;99.90;;;;;;5050310;28;20441;-92
2022/10/29 07:21:57;;;;;;;7.77;4.90;;;17.80;99.90;;;;;;5040203;28;20525;-94
2022/10/29 07:24:26;;;;;;;6.40;4.77;;;17.80;99.90;;;;;;5056654;28;20506;-96
2022/10/29 07:26:52;;;;;;;6.80;4.93;;;17.80;99.90;;;;;;5056769;28;20462;-93
2022/10/29 07:29:18;;;;;;;6.97;5.63;;;17.80;99.90;;;;;;5055067;28;20926;-95
2022/10/29 07:31:44;;;;;;;8.43;5.33;;;17.80;99.90;;;;;;5036480;28;20416;-93
2022/10/29 07:34:15;;;;;;;5.80;4.77;;;17.80;99.90;;;;;;5037064;28;20451;-93
2022/10/29 07:36:41;;;;;;;13.67;5.30;;;17.80;99.90;;;;;;5020203;28;20702;-94
2022/10/29 07:39:07;;;;;;;6.70;4.90;;;17.80;99.90;;;;;;5036338;28;20503;-94
2022/10/29 07:41:33;;;;;;;8.73;5.40;;;17.80;99.90;;;;;;5050708;28;20428;-94
2022/10/29 07:43:59;;;;;;;7.73;5.40;;;17.80;99.90;;;;;;5039478;28;20437;-95
2022/10/29 07:46:30;;;;;;;7.23;5.03;;;17.80;99.90;;;;;;5021790;28;20524;-95
2022/10/29 07:48:56;;;;;;;12.47;5.20;;;17.80;99.90;;;;;;5047992;28;20510;-93
2022/10/29 07:51:21;;;;;;;10.60;5.87;;;17.80;99.90;;;;;;5056371;28;20441;-96
2022/10/29 07:53:47;;;;;;;5.90;4.57;;;17.80;99.90;;;;;;5045779;28;20625;-95
2022/10/29 07:56:13;;;;;;;10.27;5.60;;;17.80;99.90;;;;;;5041294;28;20466;-94
2022/10/29 07:58:39;;;;;;;8.57;5.40;;;17.80;99.90;;;;;;5024081;28;20436;-95
2022/10/29 08:01:05;;;;;;;9.00;5.00;;;17.80;99.90;;;;;;5041175;28;20433;-95
2022/10/29 08:03:32;;;;;;;12.50;5.40;;;17.80;99.90;;;;;;5045983;28;20452;-96
2022/10/29 08:05:58;;;;;;;7.93;4.97;;;17.80;99.90;;;;;;5046287;28;20448;-95
2022/10/29 08:08:24;;;;;;;11.07;6.10;;;17.80;99.90;;;;;;5036249;28;20498;-95
2022/10/29 08:10:50;;;;;;;10.77;5.40;;;17.80;99.90;;;;;;5037098;28;20756;-94
2022/10/29 08:13:16;;;;;;;9.43;4.80;;;17.80;99.90;;;;;;5043387;28;20461;-96
2022/10/29 08:15:47;;;;;;;7.90;5.13;;;17.80;99.90;;;;;;5043358;28;20780;-93
2022/10/29 08:18:17;;;;;;;9.90;5.30;;;17.80;99.90;;;;;;5036901;28;20521;-95
2022/10/29 08:20:44;;;;;;;7.20;4.97;;;17.80;99.90;;;;;;5036907;28;20490;-95
2022/10/29 08:23:10;;;;;;;11.70;5.60;;;17.80;99.90;;;;;;5020623;28;20491;-96
2022/10/29 08:25:40;;;;;;;11.07;4.93;;;17.80;99.90;;;;;;5050791;28;20441;-95
2022/10/29 08:28:13;;;;;;;9.50;5.60;;;17.80;99.90;;;;;;5038637;28;20813;-94
2022/10/29 08:30:50;;;;;;;;;;;;;;;;;;;;;
2022/10/29 08:33:26;;;;;;;6.93;5.13;;;17.80;99.90;;;;;;5057168;28;20525;-95
2022/10/29 08:35:53;;;;;;;9.80;5.80;;;17.80;99.90;;;;;;5055829;28;20459;-96
2022/10/29 08:38:22;;;;;;;6.93;5.70;;;17.80;99.90;;;;;;5056890;28;20424;-95
2022/10/29 08:40:57;;;;;;;6.90;5.27;;;17.80;99.90;;;;;;5023118;28;20555;-94
2022/10/29 08:43:59;;;;;;;7.80;5.20;;;17.80;99.90;;;;;;5056128;28;20420;-96
2022/10/29 08:47:08;;;;;;;10.40;4.97;;;17.90;99.90;;;;;;5055036;28;20459;-95
2022/10/29 08:49:58;;;;;;;8.77;5.03;;;17.80;99.90;;;;;;5053429;28;20518;-92
2022/10/29 08:52:32;;;;;;;8.63;5.17;;;17.80;99.90;;;;;;5023814;28;20599;-96
2022/10/29 08:58:09;;;;;;;9.60;5.50;;;17.80;99.90;;;;;;5035859;28;20479;-96
2022/10/29 09:00:40;;;;;;;12.23;5.47;;;17.90;99.90;;;;;;5048093;28;20893;-95
2022/10/29 09:03:13;;;;;;;6.90;4.33;;;17.90;99.90;;;;;;5055869;28;20473;-95
2022/10/29 09:05:58;;;;;;;12.03;5.87;;;17.90;99.90;;;;;;5050357;28;20439;-96
2022/10/29 09:08:32;;;;;;;10.33;4.57;;;17.90;99.90;;;;;;5036017;28;20755;-95
2022/10/29 09:11:24;;;;;;;10.43;5.50;;;17.90;99.90;;;;;;5044868;28;20450;-96
2022/10/29 09:14:32;;;;;;;15.60;4.90;;;17.90;99.90;;;;;;5019508;28;20936;-95
2022/10/29 09:17:04;;;;;;;11.70;5.60;;;18.00;99.90;;;;;;4989652;28;20454;-95
2022/10/29 09:19:54;;;;;;;8.50;5.40;;;17.90;99.90;;;;;;5035266;28;20442;-95
2022/10/29 09:22:44;;;;;;;7.13;4.67;;;18.00;99.90;;;;;;5035902;28;20433;-96
2022/10/29 09:25:31;;;;;;;11.60;4.83;;;18.00;99.90;;;;;;5052959;28;20432;-96
2022/10/29 09:28:17;;;;;;;9.27;5.20;;;18.00;99.90;;;;;;5032742;28;20522;-96
2022/10/29 09:30:52;;;;;;;9.43;5.40;;;18.00;99.90;;;;;;5021327;28;20477;-96
2022/10/29 09:33:25;;;;;;;10.70;5.07;;;17.90;99.90;;;;;;5060933;28;20521;-91
2022/10/29 09:35:56;;;;;;;8.27;5.53;;;18.00;99.90;;;;;;5048748;28;20483;-95
2022/10/29 09:38:37;;;;;;;9.90;5.60;;;18.00;99.90;;;;;;5040315;28;20425;-92
2022/10/29 09:41:08;;;;;;;12.03;5.63;;;18.00;99.90;;;;;;5018972;28;20448;-95
2022/10/29 09:44:01;;;;;;;7.40;5.20;;;18.00;99.90;;;;;;5035645;28;20414;-92
2022/10/29 09:46:57;;;;;;;9.57;5.30;;;18.00;99.90;;;;;;5012328;28;20960;-95
2022/10/29 09:49:45;;;;;;;7.70;5.00;;;18.10;99.90;;;;;;5044601;28;20431;-95
2022/10/29 09:52:24;;;;;;;8.03;4.60;;;18.00;99.90;;;;;;5034422;28;20968;-91
2022/10/29 09:54:53;;;;;;;8.10;5.10;;;18.10;99.90;;;;;;5035777;28;20778;-94
2022/10/29 09:57:23;;;;;;;6.83;4.80;;;18.20;99.90;;;;;;5038456;28;20526;-95
2022/10/29 10:00:19;;;;;;;16.30;4.63;;;18.20;99.90;;;;;;5038722;28;20423;-94
2022/10/29 10:03:16;;;;;;;13.97;6.50;;;18.20;99.90;;;;;;5048933;28;20464;-93
2022/10/29 10:06:09;;;;;;;9.50;5.30;;;18.20;99.90;;;;;;5039345;28;20519;-91
2022/10/29 10:09:01;;;;;;;8.67;5.03;;;18.20;99.90;;;;;;5027643;28;20451;-94
2022/10/29 10:11:37;;;;;;;10.73;5.63;;;18.20;99.90;;;;;;5055416;28;20424;-94
2022/10/29 10:14:18;;;;;;;11.87;4.40;;;18.30;99.90;;;;;;5043308;28;20526;-94
2022/10/29 10:16:59;;;;;;;11.17;6.10;;;18.30;99.90;;;;;;5054712;28;20723;-93
2022/10/29 10:19:30;;;;;;;9.40;5.73;;;18.20;99.90;;;;;;5055558;28;20436;-95
2022/10/29 10:22:23;;;;;;;14.63;5.60;;;18.30;99.90;;;;;;5050522;28;20457;-92
2022/10/29 10:24:49;;;;;;;8.97;5.30;;;18.30;99.90;;;;;;5029364;28;20491;-94
2022/10/29 10:27:18;;;;;;;9.03;4.83;;;18.30;99.90;;;;;;5051311;28;20515;-92
2022/10/29 10:30:03;;;;;;;9.87;4.93;;;18.30;99.90;;;;;;5035604;28;20406;-92
2022/10/29 10:32:31;;;;;;;6.23;5.00;;;18.30;99.90;;;;;;5038875;28;20440;-94
2022/10/29 10:35:00;;;;;;;9.97;4.90;;;18.30;99.90;;;;;;5030578;28;20507;-94
2022/10/29 10:37:31;;;;;;;12.50;6.00;;;18.30;99.90;;;;;;5059371;28;20502;-94
2022/10/29 10:40:04;;;;;;;7.50;5.10;;;18.40;99.90;;;;;;5059135;28;20416;-93
2022/10/29 10:42:38;;;;;;;15.43;5.10;;;18.40;99.90;;;;;;5024970;28;20427;-94
2022/10/29 10:45:21;;;;;;;11.00;5.57;;;18.40;99.90;;;;;;5050956;28;20452;-93
2022/10/29 10:47:52;;;;;;;9.77;5.50;;;18.40;99.90;;;;;;5050072;28;20896;-94
2022/10/29 10:50:24;;;;;;;6.97;4.50;;;18.40;99.90;;;;;;5039095;28;20441;-94
2022/10/29 10:53:24;;;;;;;8.13;5.37;;;18.40;99.90;;;;;;5040632;28;20442;-94
2022/10/29 10:55:52;;;;;;;8.90;5.20;;;18.40;99.90;;;;;;5020035;28;20487;-94
2022/10/29 10:58:59;;;;;;;10.00;5.73;;;18.40;99.90;;;;;;5041079;28;20514;-92
2022/10/29 11:01:40;;;;;;;10.50;5.47;;;18.40;99.90;;;;;;5040080;28;20425;-92
2022/10/29 11:04:18;;;;;;;11.10;6.10;;;18.40;99.90;;;;;;5041052;28;20898;-93
2022/10/29 11:06:51;;;;;;;16.50;5.70;;;18.40;99.90;;;;;;5058437;28;20438;-91
2022/10/29 11:09:29;;;;;;;7.97;5.17;;;18.50;99.90;;;;;;5058143;28;20417;-93
2022/10/29 11:12:07;;;;;;;9.90;5.07;;;18.40;99.90;;;;;;5035761;28;20507;-94
2022/10/29 11:14:44;;;;;;;8.90;4.67;;;18.50;99.90;;;;;;5022368;28;20576;-94
2022/10/29 11:17:40;;;;;;;11.67;5.87;;;18.50;99.90;;;;;;5038521;28;20427;-89
2022/10/29 11:20:17;;;;;;;11.03;6.60;;;18.50;99.90;;;;;;5038331;28;20876;-92
2022/10/29 11:23:16;;;;;;;11.03;5.40;;;18.50;99.90;;;;;;5038841;28;20413;-92
2022/10/29 11:26:01;;;;;;;8.77;5.13;;;18.50;99.90;;;;;;5051647;28;20456;-93
2022/10/29 11:28:41;;;;;;;8.20;5.60;;;18.60;99.90;;;;;;5020976;28;20429;-92
2022/10/29 11:31:15;;;;;;;7.80;5.60;;;18.50;99.90;;;;;;5038797;28;20494;-92
2022/10/29 11:33:49;;;;;;;9.27;5.37;;;18.60;99.90;;;;;;5011782;28;20471;-93
2022/10/29 11:36:33;;;;;;;13.30;5.00;;;18.50;99.90;;;;;;5034258;28;20524;-92
2022/10/29 11:39:27;;;;;;;10.87;5.20;;;18.60;99.90;;;;;;5047411;28;20424;-91
2022/10/29 11:42:12;;;;;;;11.87;5.20;;;18.60;99.90;;;;;;5051910;28;20425;-93
2022/10/29 11:44:39;;;;;;;9.70;5.77;;;18.60;99.90;;;;;;5042641;28;20956;-92
2022/10/29 11:47:28;;;;;;;8.70;5.47;;;18.60;99.90;;;;;;5024186;28;20432;-92
2022/10/29 11:49:56;;;;;;;11.37;5.53;;;18.60;99.90;;;;;;5039232;28;20475;-92
2022/10/29 11:53:01;;;;;;;7.97;5.37;;;18.60;99.90;;;;;;5037430;28;20457;-92
2022/10/29 11:55:52;;;;;;;7.80;5.33;;;18.60;99.90;;;;;;5053911;28;20464;-93
2022/10/29 11:58:21;;;;;;;7.70;5.07;;;18.70;99.90;;;;;;5040717;28;20421;-92
2022/10/29 12:00:52;;;;;;;8.40;5.20;;;18.60;99.90;;;;;;5029751;28;20448;-93
2022/10/29 12:03:50;;;;;;;8.23;5.40;;;18.70;99.90;;;;;;5040276;28;20471;-92
2022/10/29 12:06:30;;;;;;;8.03;4.90;;;18.70;99.90;;;;;;5024883;28;20443;-93
2022/10/29 12:09:02;;;;;;;11.67;5.60;;;18.70;99.90;;;;;;5038189;28;20458;-93
2022/10/29 12:11:40;;;;;;;8.87;4.60;;;18.70;99.90;;;;;;5055483;28;20452;-94
2022/10/29 12:14:43;;;;;;;6.70;4.80;;;18.70;99.90;;;;;;5058088;28;20480;-91
2022/10/29 12:17:15;;;;;;;9.20;5.30;;;18.70;99.90;;;;;;5019968;28;20822;-91
2022/10/29 12:20:06;;;;;;;10.70;4.90;;;18.70;99.90;;;;;;5020238;28;20468;-90
2022/10/29 12:22:54;;;;;;;11.80;5.17;;;18.70;99.90;;;;;;4991231;28;20488;-89
2022/10/29 12:25:36;;;;;;;9.10;5.47;;;18.80;99.90;;;;;;5035994;28;20953;-90
2022/10/29 12:28:08;;;;;;;8.77;5.27;;;18.80;99.90;;;;;;5003557;28;20830;-89
2022/10/29 12:30:57;;;;;;;13.47;5.43;;;18.80;99.90;;;;;;5036480;28;20475;-91
2022/10/29 12:33:58;;;;;;;6.90;4.70;;;18.80;99.90;;;;;;5039207;28;20602;-91
2022/10/29 12:36:47;;;;;;;8.80;4.87;;;18.80;99.90;;;;;;5022964;28;20425;-91
2022/10/29 12:39:24;;;;;;;10.40;5.17;;;18.80;99.90;;;;;;5039289;28;20851;-91
2022/10/29 12:41:56;;;;;;;10.13;4.50;;;18.90;99.90;;;;;;5022979;28;20432;-91
2022/10/29 12:44:35;;;;;;;12.13;4.90;;;18.90;99.90;;;;;;5022736;28;20437;-90
2022/10/29 12:47:04;;;;;;;11.80;5.00;;;18.80;99.90;;;;;;5039521;28;20422;-89
2022/10/29 12:50:24;;;;;;;12.90;5.30;;;18.80;99.90;;;;;;5039356;28;20464;-90
2022/10/29 12:53:11;;;;;;;11.53;5.60;;;18.90;99.90;;;;;;4989594;28;20476;-90
2022/10/29 12:55:41;;;;;;;8.13;5.07;;;18.90;99.90;;;;;;5020691;28;20523;-89
2022/10/29 12:58:47;;;;;;;9.90;5.43;;;18.90;99.90;;;;;;5035331;28;20887;-90
2022/10/29 13:01:27;;;;;;;11.23;5.53;;;18.90;99.90;;;;;;5019361;28;20446;-89
2022/10/29 13:03:53;;;;;;;15.60;5.40;;;18.90;99.90;;;;;;5019173;28;20442;-90
2022/10/29 13:06:41;;;;;;;11.13;5.83;;;19.00;99.90;;;;;;5023578;28;20453;-91
2022/10/29 13:09:30;;;;;;;10.67;5.43;;;19.00;99.90;;;;;;5035714;28;20434;-90
2022/10/29 13:12:12;;;;;;;8.60;4.90;;;19.00;99.90;;;;;;5013460;28;20469;-91
2022/10/29 13:15:01;;;;;;;7.77;4.93;;;19.00;99.90;;;;;;5036020;28;20450;-90
2022/10/29 13:17:33;;;;;;;14.67;4.53;;;19.00;99.90;;;;;;5035351;28;20419;-90
2022/10/29 13:20:20;;;;;;;8.40;4.97;;;19.00;99.90;;;;;;5034889;28;20519;-90